Time;durP1;ratioP1;P1;durP2;ratioP2;P2;SDS_P1;SDS_P2;PMS_P1;PMS_P2;Temp;Humidity;BMP_temperature;BMP_pressure;BME280_temperature;BME280_humidity;BME280_pressure;Samples;Min_cycle;Max_cycle;Signal;HPM_P1;HPM_P2
2022/09/22 00:00:57;;;;;;;;;;;18.70;85.90;;;;;;5094316;28;19947;-48
2022/09/22 00:03:23;;;;;;;;;;;18.70;86.00;;;;;;5094153;28;19908;-47
2022/09/22 00:05:48;;;;;;;;;;;18.70;86.00;;;;;;5094907;28;19912;-50
2022/09/22 00:08:14;;;;;;;;;;;18.80;86.00;;;;;;5094574;28;19908;-48
2022/09/22 00:10:39;;;;;;;;;;;18.80;86.00;;;;;;5094168;28;19912;-49
2022/09/22 00:13:04;;;;;;;;;;;18.80;85.80;;;;;;5076512;28;19912;-48
2022/09/22 00:15:30;;;;;;;;;;;18.80;85.80;;;;;;5094318;28;20263;-53
2022/09/22 00:17:55;;;;;;;;;;;18.80;85.80;;;;;;5094331;28;19916;-47
2022/09/22 00:20:21;;;;;;;;;;;18.80;86.00;;;;;;5094367;28;19915;-48
2022/09/22 00:22:50;;;;;;;;;;;18.80;86.00;;;;;;5094308;28;20258;-49
2022/09/22 00:25:16;;;;;;;;;;;18.80;86.00;;;;;;5094033;28;19908;-51
2022/09/22 00:27:41;;;;;;;;;;;18.80;86.00;;;;;;5094269;28;19995;-52
2022/09/22 00:30:07;;;;;;;;;;;18.80;86.00;;;;;;5094207;28;20011;-50
2022/09/22 00:32:32;;;;;;;;;;;18.80;86.00;;;;;;5075989;28;20002;-51
2022/09/22 00:34:58;;;;;;;;;;;18.80;86.00;;;;;;5076024;28;19912;-50
2022/09/22 00:37:23;;;;;;;;;;;18.80;86.00;;;;;;5093856;28;19923;-49
2022/09/22 00:39:49;;;;;;;;;;;18.80;85.90;;;;;;5094210;28;20343;-52
2022/09/22 00:42:14;;;;;;;;;;;18.80;86.00;;;;;;5093773;28;20420;-51
2022/09/22 00:44:41;;;;;;;;;;;18.80;85.90;;;;;;5093951;28;19916;-48
2022/09/22 00:47:25;;;;;;;;;;;18.80;85.90;;;;;;5093858;28;19908;-47
2022/09/22 00:50:08;;;;;;;;;;;18.80;86.00;;;;;;5093719;28;19991;-49
2022/09/22 00:52:46;;;;;;;;;;;18.80;85.90;;;;;;5094118;28;20328;-51
2022/09/22 00:55:14;;;;;;;;;;;18.80;85.90;;;;;;5093810;28;19999;-48
2022/09/22 00:57:40;;;;;;;;;;;18.80;85.90;;;;;;5096149;28;19916;-51
2022/09/22 01:00:07;;;;;;;;;;;18.80;85.80;;;;;;5097898;28;19915;-48
2022/09/22 01:02:33;;;;;;;;;;;18.80;85.70;;;;;;5098067;28;19962;-50
2022/09/22 01:04:59;;;;;;;;;;;18.80;85.70;;;;;;5097250;28;19924;-49
2022/09/22 01:07:26;;;;;;;;;;;18.80;85.70;;;;;;5079566;28;19909;-47
2022/09/22 01:09:54;;;;;;;;;;;18.80;85.60;;;;;;5097624;28;19908;-48
2022/09/22 01:12:20;;;;;;;;;;;18.80;85.60;;;;;;5097705;28;19926;-47
2022/09/22 01:14:51;;;;;;;;;;;18.80;85.70;;;;;;5097836;28;19916;-47
2022/09/22 01:17:22;;;;;;;;;;;18.80;85.60;;;;;;5097230;28;19916;-49
2022/09/22 01:20:14;;;;;;;;;;;18.80;85.60;;;;;;5097209;28;20371;-48
2022/09/22 01:22:48;;;;;;;;;;;18.80;85.60;;;;;;5058108;28;19912;-54
2022/09/22 01:25:32;;;;;;;;;;;18.80;85.60;;;;;;5097095;28;20270;-48
2022/09/22 01:28:01;;;;;;;;;;;18.80;85.70;;;;;;5097360;28;20431;-49
2022/09/22 01:30:46;;;;;;;;;;;18.80;85.80;;;;;;5097337;28;20363;-52
2022/09/22 01:33:12;;;;;;;;;;;18.80;85.80;;;;;;5079069;28;19985;-48
2022/09/22 01:35:56;;;;;;;;;;;18.80;85.80;;;;;;5096883;28;19978;-49
2022/09/22 01:38:21;;;;;;;;;;;18.80;85.80;;;;;;5097452;28;19912;-48
2022/09/22 01:40:47;;;;;;;;;;;18.80;85.90;;;;;;5096900;28;19908;-48
2022/09/22 01:43:33;;;;;;;;;;;18.80;85.80;;;;;;5097071;28;19954;-51
2022/09/22 01:46:00;;;;;;;;;;;18.70;85.90;;;;;;5096875;28;19912;-50
2022/09/22 01:48:28;;;;;;;;;;;18.80;85.90;;;;;;5096633;28;20286;-49
2022/09/22 01:50:59;;;;;;;;;;;18.80;85.90;;;;;;5078771;28;19908;-49
2022/09/22 01:53:29;;;;;;;;;;;18.80;85.90;;;;;;5096652;28;19912;-48
2022/09/22 01:55:58;;;;;;;;;;;18.80;85.90;;;;;;5096775;28;19919;-49
2022/09/22 01:58:34;;;;;;;;;;;18.80;85.90;;;;;;5097137;28;19927;-48
2022/09/22 02:01:06;;;;;;;;;;;18.80;85.90;;;;;;5078510;28;19908;-46
2022/09/22 02:03:38;;;;;;;;;;;18.80;85.80;;;;;;5096824;28;20351;-48
2022/09/22 02:06:15;;;;;;;;;;;18.80;85.80;;;;;;5096707;28;19912;-49
2022/09/22 02:08:43;;;;;;;;;;;18.80;85.90;;;;;;5095349;28;19916;-50
2022/09/22 02:11:12;;;;;;;;;;;18.80;85.90;;;;;;5096097;28;20135;-50
2022/09/22 02:13:38;;;;;;;;;;;18.80;85.90;;;;;;5096446;28;19912;-51
2022/09/22 02:16:04;;;;;;;;;;;18.80;85.80;;;;;;5096029;28;19958;-49
2022/09/22 02:18:41;;;;;;;;;;;18.80;85.90;;;;;;5096093;28;19916;-48
2022/09/22 02:21:06;;;;;;;;;;;18.80;85.80;;;;;;5096117;28;19908;-47
2022/09/22 02:23:32;;;;;;;;;;;18.80;85.80;;;;;;5096009;28;20020;-52
2022/09/22 02:26:00;;;;;;;;;;;18.80;85.90;;;;;;5095961;28;20383;-47
2022/09/22 02:28:27;;;;;;;;;;;18.80;86.00;;;;;;5095902;28;19961;-51
2022/09/22 02:30:54;;;;;;;;;;;18.80;85.90;;;;;;5096508;28;20007;-49
2022/09/22 02:33:21;;;;;;;;;;;18.80;85.90;;;;;;5096130;28;19916;-51
2022/09/22 02:35:51;;;;;;;;;;;18.80;85.80;;;;;;5077981;28;20339;-48
2022/09/22 02:38:20;;;;;;;;;;;18.80;85.80;;;;;;5095801;28;19912;-49
2022/09/22 02:40:48;;;;;;;;;;;18.80;85.70;;;;;;5095993;28;19928;-49
2022/09/22 02:43:14;;;;;;;;;;;18.80;85.80;;;;;;5095765;28;19942;-49
2022/09/22 02:45:47;;;;;;;;;;;18.80;85.70;;;;;;5096025;28;19916;-49
2022/09/22 02:48:22;;;;;;;;;;;18.80;85.70;;;;;;5095840;28;20259;-51
2022/09/22 02:50:47;;;;;;;;;;;18.80;85.70;;;;;;5095493;28;20385;-49
2022/09/22 02:53:15;;;;;;;;;;;18.80;85.70;;;;;;5096097;28;19908;-51
2022/09/22 02:55:41;;;;;;;;;;;18.80;85.60;;;;;;5095271;28;20008;-48
2022/09/22 02:58:06;;;;;;;;;;;18.90;85.60;;;;;;5095662;28;19916;-50
2022/09/22 03:00:32;;;;;;;;;;;18.90;85.70;;;;;;5095638;28;20331;-49
2022/09/22 03:02:57;;;;;;;;;;;18.90;85.60;;;;;;5095537;28;19908;-49
2022/09/22 03:05:23;;;;;;;;;;;18.90;85.50;;;;;;5095629;28;19920;-51
2022/09/22 03:07:48;;;;;;;;;;;18.90;85.60;;;;;;5095360;28;19915;-51
2022/09/22 03:10:14;;;;;;;;;;;18.80;85.60;;;;;;5077180;28;19995;-50
2022/09/22 03:12:41;;;;;;;;;;;18.80;85.60;;;;;;5095109;28;20373;-47
2022/09/22 03:15:10;;;;;;;;;;;18.80;85.60;;;;;;5094939;28;19995;-48
2022/09/22 03:17:36;;;;;;;;;;;18.80;85.60;;;;;;5095002;28;19922;-49
2022/09/22 03:20:03;;;;;;;;;;;18.80;85.60;;;;;;5076850;28;19947;-51
2022/09/22 03:22:28;;;;;;;;;;;18.80;85.60;;;;;;5095125;28;19912;-49
2022/09/22 03:24:54;;;;;;;;;;;18.80;85.70;;;;;;5095152;28;20275;-48
2022/09/22 03:27:19;;;;;;;;;;;18.80;85.70;;;;;;5094763;28;19953;-47
2022/09/22 03:29:45;;;;;;;;;;;18.80;85.70;;;;;;5094685;28;19909;-49
2022/09/22 03:32:10;;;;;;;;;;;18.80;85.70;;;;;;5094677;28;20407;-50
2022/09/22 03:34:36;;;;;;;;;;;18.80;85.60;;;;;;5095118;28;19908;-48
2022/09/22 03:37:01;;;;;;;;;;;18.80;85.60;;;;;;5094794;28;19919;-47
2022/09/22 03:39:26;;;;;;;;;;;18.80;85.60;;;;;;5094806;28;19916;-47
2022/09/22 03:41:52;;;;;;;;;;;18.80;85.60;;;;;;5094815;28;19953;-52
2022/09/22 03:44:17;;;;;;;;;;;18.80;85.60;;;;;;5094846;28;19912;-48
2022/09/22 03:46:43;;;;;;;;;;;18.80;85.60;;;;;;5094697;28;19955;-48
2022/09/22 03:49:09;;;;;;;;;;;18.80;85.50;;;;;;5094269;28;19908;-48
2022/09/22 03:51:35;;;;;;;;;;;18.80;85.50;;;;;;5076309;28;20285;-51
2022/09/22 03:54:01;;;;;;;;;;;18.80;85.40;;;;;;5076050;28;19908;-49
2022/09/22 03:56:26;;;;;;;;;;;18.80;85.50;;;;;;5094046;28;19916;-48
2022/09/22 03:58:51;;;;;;;;;;;18.80;85.50;;;;;;5094147;28;19912;-48
2022/09/22 04:01:17;;;;;;;;;;;18.80;85.60;;;;;;5094203;28;19954;-50
2022/09/22 04:03:42;;;;;;;;;;;18.80;85.70;;;;;;5094125;28;19920;-49
2022/09/22 04:06:08;;;;;;;;;;;18.80;85.70;;;;;;5094511;28;19912;-49
2022/09/22 04:08:34;;;;;;;;;;;18.80;85.60;;;;;;5094670;28;19950;-48
2022/09/22 04:11:00;;;;;;;;;;;18.80;85.70;;;;;;5094351;28;20371;-50
2022/09/22 04:13:26;;;;;;;;;;;18.80;85.60;;;;;;5093897;28;19915;-47
2022/09/22 04:15:51;;;;;;;;;;;18.80;85.60;;;;;;5075934;28;19912;-49
2022/09/22 04:18:17;;;;;;;;;;;18.80;85.60;;;;;;5093904;28;19919;-51
2022/09/22 04:20:43;;;;;;;;;;;18.80;85.70;;;;;;5093811;28;19966;-48
2022/09/22 04:23:09;;;;;;;;;;;18.80;85.70;;;;;;5093986;28;19916;-48
2022/09/22 04:25:34;;;;;;;;;;;18.80;85.60;;;;;;5094074;28;19912;-46
2022/09/22 04:28:00;;;;;;;;;;;18.80;85.50;;;;;;5075870;28;19909;-48
2022/09/22 04:30:25;;;;;;;;;;;18.80;85.60;;;;;;5094033;28;19999;-49
2022/09/22 04:32:51;;;;;;;;;;;18.80;85.70;;;;;;5075345;28;19995;-47
2022/09/22 04:35:16;;;;;;;;;;;18.80;85.60;;;;;;5093908;28;20270;-51
2022/09/22 04:37:42;;;;;;;;;;;18.80;85.70;;;;;;5093612;28;19965;-49
2022/09/22 04:40:10;;;;;;;;;;;18.80;85.50;;;;;;5093666;28;19913;-52
2022/09/22 04:42:36;;;;;;;;;;;18.90;85.50;;;;;;5075720;28;19961;-49
2022/09/22 04:45:02;;;;;;;;;;;18.90;85.50;;;;;;5094144;28;19916;-48
2022/09/22 04:47:29;;;;;;;;;;;18.90;85.30;;;;;;5072139;28;19916;-48
2022/09/22 04:49:54;;;;;;;;;;;18.90;85.40;;;;;;5075062;28;19915;-50
2022/09/22 04:52:20;;;;;;;;;;;18.90;85.40;;;;;;5084870;28;19912;-50
2022/09/22 04:54:45;;;;;;;;;;;18.90;85.40;;;;;;5093220;28;20324;-49
2022/09/22 04:57:11;;;;;;;;;;;18.90;85.40;;;;;;5093935;28;19916;-54
2022/09/22 04:59:36;;;;;;;;;;;18.90;85.30;;;;;;5098669;28;20002;-48
2022/09/22 05:02:02;;;;;;;;;;;18.90;85.30;;;;;;5091894;28;19908;-48
2022/09/22 05:04:28;;;;;;;;;;;19.00;85.40;;;;;;5092405;28;19920;-47
2022/09/22 05:06:54;;;;;;;;;;;18.90;85.50;;;;;;5092867;28;19909;-52
2022/09/22 05:09:19;;;;;;;;;;;18.90;85.50;;;;;;5090402;28;19924;-50
2022/09/22 05:11:47;;;;;;;;;;;18.90;85.70;;;;;;5085073;28;19968;-52
2022/09/22 05:14:14;;;;;;;;;;;18.90;85.20;;;;;;5105778;28;19912;-48
2022/09/22 05:16:40;;;;;;;;;;;19.00;85.30;;;;;;5102674;28;19956;-46
2022/09/22 05:19:08;;;;;;;;;;;18.90;85.80;;;;;;5079532;28;20015;-48
2022/09/22 05:21:34;;;;;;;;;;;18.90;85.90;;;;;;5093498;28;20358;-46
2022/09/22 05:23:59;;;;;;;;;;;18.90;85.90;;;;;;5089431;28;19912;-47
2022/09/22 05:26:25;;;;;;;;;;;18.80;85.90;;;;;;5099778;28;19912;-49
2022/09/22 05:28:50;;;;;;;;;;;18.80;85.90;;;;;;5111348;28;19980;-49
2022/09/22 05:31:16;;;;;;;;;;;18.90;85.90;;;;;;5113523;28;19908;-50
2022/09/22 05:33:41;;;;;;;;;;;18.90;85.90;;;;;;5105031;28;19957;-48
2022/09/22 05:36:07;;;;;;;;;;;18.90;85.80;;;;;;5098598;28;19947;-51
2022/09/22 05:38:32;;;;;;;;;;;18.90;86.50;;;;;;5113920;28;19912;-50
2022/09/22 05:40:58;;;;;;;;;;;18.90;86.50;;;;;;5104670;28;19915;-47
2022/09/22 05:43:23;;;;;;;;;;;18.90;86.40;;;;;;5106956;28;19911;-48
2022/09/22 05:45:49;;;;;;;;;;;18.90;86.20;;;;;;5114761;28;20224;-53
2022/09/22 05:48:14;;;;;;;;;;;18.90;86.40;;;;;;5098105;28;19919;-53
2022/09/22 05:50:41;;;;;;;;;;;18.90;86.40;;;;;;5095583;28;19915;-50
2022/09/22 05:53:09;;;;;;;;;;;18.90;86.40;;;;;;5106296;28;20381;-53
2022/09/22 05:55:34;;;;;;;;;;;18.90;86.30;;;;;;5077531;28;19912;-52
2022/09/22 05:58:01;;;;;;;;;;;18.90;86.30;;;;;;5057980;28;19973;-53
2022/09/22 06:00:27;;;;;;;;;;;18.90;86.20;;;;;;5076374;28;19961;-51
2022/09/22 06:02:52;;;;;;;;;;;18.80;86.10;;;;;;5058192;28;19909;-52
2022/09/22 06:05:18;;;;;;;;;;;18.80;86.10;;;;;;5076268;28;19993;-52
2022/09/22 06:07:43;;;;;;;;;;;18.80;86.00;;;;;;5076041;28;20308;-52
2022/09/22 06:10:10;;;;;;;;;;;18.80;86.00;;;;;;5075651;28;19915;-53
2022/09/22 06:12:36;;;;;;;;;;;18.80;86.00;;;;;;5075987;28;19913;-51
2022/09/22 06:15:02;;;;;;;;;;;18.80;86.00;;;;;;5075889;28;19970;-53
2022/09/22 06:17:28;;;;;;;;;;;18.80;86.00;;;;;;5075457;28;19917;-52
2022/09/22 06:19:53;;;;;;;;;;;18.80;86.00;;;;;;5075870;28;20252;-50
2022/09/22 06:22:19;;;;;;;;;;;18.80;86.00;;;;;;5075744;28;19908;-53
2022/09/22 06:24:44;;;;;;;;;;;18.80;85.90;;;;;;5057519;28;20410;-49
2022/09/22 06:27:10;;;;;;;;;;;18.80;85.90;;;;;;5075506;28;20290;-54
2022/09/22 06:29:36;;;;;;;;;;;18.80;85.90;;;;;;5075484;28;20279;-54
2022/09/22 06:32:02;;;;;;;;;;;18.80;85.90;;;;;;5075640;28;19909;-51
2022/09/22 06:34:28;;;;;;;;;;;18.80;85.90;;;;;;5075052;28;19915;-53
2022/09/22 06:36:55;;;;;;;;;;;18.70;85.80;;;;;;5075200;28;19913;-53
2022/09/22 06:39:21;;;;;;;;;;;18.70;85.80;;;;;;5075346;28;20264;-51
2022/09/22 06:41:46;;;;;;;;;;;18.70;85.80;;;;;;5075435;28;19963;-56
2022/09/22 06:44:13;;;;;;;;;;;18.70;85.90;;;;;;5075468;28;19913;-51
2022/09/22 06:46:38;;;;;;;;;;;18.70;85.90;;;;;;5074870;28;19912;-53
2022/09/22 06:49:04;;;;;;;;;;;18.70;85.90;;;;;;5075434;28;20347;-51
2022/09/22 06:51:31;;;;;;;;;;;18.70;85.90;;;;;;5057248;28;19970;-51
2022/09/22 06:53:57;;;;;;;;;;;18.70;86.00;;;;;;5057276;28;20015;-50
2022/09/22 06:56:24;;;;;;;;;;;18.60;85.90;;;;;;5056403;28;20022;-50
2022/09/22 06:58:55;;;;;;;;;;;18.60;85.90;;;;;;5075067;28;20007;-53
2022/09/22 07:01:21;;;;;;;;;;;18.60;86.00;;;;;;5074871;28;20312;-52
2022/09/22 07:03:46;;;;;;;;;;;18.60;86.00;;;;;;5053808;28;20291;-53
2022/09/22 07:06:16;;;;;;;;;;;18.60;86.00;;;;;;5054674;28;19913;-53
2022/09/22 07:08:42;;;;;;;;;;;18.60;86.10;;;;;;5053683;28;19909;-54
2022/09/22 07:11:08;;;;;;;;;;;18.50;86.10;;;;;;5055299;28;19908;-54
2022/09/22 07:13:38;;;;;;;;;;;18.60;86.10;;;;;;5053468;28;19999;-50
2022/09/22 07:16:17;;;;;;;;;;;18.60;86.10;;;;;;5054551;28;19919;-50
2022/09/22 07:18:46;;;;;;;;;;;18.50;86.10;;;;;;5053403;28;19982;-52
2022/09/22 07:21:13;;;;;;;;;;;18.50;86.10;;;;;;5054239;28;20003;-53
2022/09/22 07:23:40;;;;;;;;;;;18.50;86.20;;;;;;5054355;28;20321;-48
2022/09/22 07:26:06;;;;;;;;;;;18.50;86.10;;;;;;5053164;28;19916;-51
2022/09/22 07:28:33;;;;;;;;;;;18.50;86.20;;;;;;5054297;28;19918;-49
2022/09/22 07:31:04;;;;;;;;;;;18.50;86.20;;;;;;5053197;28;19912;-53
2022/09/22 07:33:31;;;;;;;;;;;18.50;86.20;;;;;;5053985;28;19909;-53
2022/09/22 07:36:09;;;;;;;;;;;18.40;86.20;;;;;;5053988;28;19913;-52
2022/09/22 07:38:38;;;;;;;;;;;18.50;86.30;;;;;;5054526;28;20348;-53
2022/09/22 07:41:08;;;;;;;;;;;18.40;86.20;;;;;;5054117;28;19916;-54
2022/09/22 07:43:34;;;;;;;;;;;18.40;86.20;;;;;;5054366;28;19909;-53
2022/09/22 07:45:59;;;;;;;;;;;18.40;86.30;;;;;;5054452;28;19909;-53
2022/09/22 07:51:20;;;;;;;;;;;18.30;86.40;;;;;;5054358;28;19915;-52
2022/09/22 07:53:56;;;;;;;;;;;18.30;86.50;;;;;;5054180;28;19956;-51
2022/09/22 07:56:26;;;;;;;;;;;18.30;86.50;;;;;;5054014;28;19919;-53
2022/09/22 07:58:52;;;;;;;;;;;18.30;86.40;;;;;;5054079;28;20012;-52
2022/09/22 08:01:18;;;;;;;;;;;18.40;86.40;;;;;;5052591;28;19909;-53
2022/09/22 08:03:45;;;;;;;;;;;18.40;86.40;;;;;;5058843;28;19920;-53
2022/09/22 08:06:10;;;;;;;;;;;18.40;86.30;;;;;;5073056;28;19915;-53
2022/09/22 08:08:37;;;;;;;;;;;18.40;86.70;;;;;;5073741;28;19912;-52
2022/09/22 08:11:04;;;;;;;;;;;18.40;86.00;;;;;;5073647;28;19954;-54
2022/09/22 08:13:30;;;;;;;;;;;18.50;86.40;;;;;;5073479;28;19909;-54
2022/09/22 08:15:55;;;;;;;;;;;18.60;85.80;;;;;;5073502;28;19919;-54
2022/09/22 08:18:23;;;;;;;;;;;18.60;85.60;;;;;;5055441;28;19913;-50
2022/09/22 08:20:48;;;;;;;;;;;18.70;85.50;;;;;;5073844;28;19912;-52
2022/09/22 08:23:14;;;;;;;;;;;18.70;85.50;;;;;;5074195;28;20351;-50
2022/09/22 08:25:39;;;;;;;;;;;18.70;85.40;;;;;;5073950;28;19952;-50
2022/09/22 08:28:05;;;;;;;;;;;18.70;85.40;;;;;;5073781;28;19916;-53
2022/09/22 08:30:30;;;;;;;;;;;18.70;85.30;;;;;;5073742;28;20346;-53
2022/09/22 08:32:58;;;;;;;;;;;18.70;85.30;;;;;;5073766;28;19909;-53
2022/09/22 08:35:24;;;;;;;;;;;18.70;85.30;;;;;;5073773;28;20294;-51
2022/09/22 08:37:49;;;;;;;;;;;18.70;85.30;;;;;;5073505;28;19962;-50
2022/09/22 08:40:16;;;;;;;;;;;18.70;85.30;;;;;;5073981;28;19931;-53
2022/09/22 08:42:44;;;;;;;;;;;18.70;85.30;;;;;;5073633;28;19909;-54
2022/09/22 08:45:30;;;;;;;;;;;18.70;85.30;;;;;;5073378;28;19954;-52
2022/09/22 08:53:36;;;;;;;;;;;18.70;85.30;;;;;;5073305;28;20278;-51
2022/09/22 08:56:05;;;;;;;;;;;18.70;85.30;;;;;;5073431;28;19912;-51
2022/09/22 08:58:40;;;;;;;;;;;18.70;85.30;;;;;;5073554;28;19912;-51
2022/09/22 09:01:11;;;;;;;;;;;18.70;85.30;;;;;;5073250;28;19999;-51
2022/09/22 09:03:53;;;;;;;;;;;18.70;85.40;;;;;;5073329;28;19920;-51
2022/09/22 09:06:30;;;;;;;;;;;18.60;85.30;;;;;;5073300;28;19919;-54
2022/09/22 09:09:05;;;;;;;;;;;18.60;85.40;;;;;;5073139;28;19908;-53
2022/09/22 09:11:39;;;;;;;;;;;18.60;85.40;;;;;;5072868;28;19916;-52
2022/09/22 09:14:05;;;;;;;;;;;18.60;85.40;;;;;;5055080;28;20259;-49
2022/09/22 09:16:40;;;;;;;;;;;18.60;85.40;;;;;;5073084;28;19916;-50
2022/09/22 09:19:25;;;;;;;;;;;18.60;85.50;;;;;;5076429;28;19920;-50
2022/09/22 09:21:51;;;;;;;;;;;18.60;85.50;;;;;;5076689;28;19999;-54
2022/09/22 09:24:35;;;;;;;;;;;18.60;85.60;;;;;;5076881;28;19908;-50
2022/09/22 09:27:08;;;;;;;;;;;18.50;85.50;;;;;;5076593;28;19908;-52
2022/09/22 09:29:52;;;;;;;;;;;18.60;85.60;;;;;;5077026;28;20468;-50
2022/09/22 09:32:32;;;;;;;;;;;18.50;85.60;;;;;;5076800;28;19908;-53
2022/09/22 09:34:58;;;;;;;;;;;18.60;85.60;;;;;;5076766;28;19927;-53
2022/09/22 09:37:24;;;;;;;;;;;18.60;86.00;;;;;;5076329;28;19913;-50
2022/09/22 09:39:50;;;;;;;;;;;18.60;85.40;;;;;;5076573;28;20058;-50
2022/09/22 09:42:23;;;;;;;;;;;18.60;85.30;;;;;;5058093;28;19908;-49
2022/09/22 09:44:52;;;;;;;;;;;18.60;85.20;;;;;;5058532;28;20026;-51
2022/09/22 09:47:26;;;;;;;;;;;18.70;85.20;;;;;;5076315;28;20363;-52
2022/09/22 09:49:53;;;;;;;;;;;18.70;85.10;;;;;;5076298;28;19915;-52
2022/09/22 09:52:20;;;;;;;;;;;18.70;85.10;;;;;;5076208;28;19912;-53
2022/09/22 09:54:49;;;;;;;;;;;18.70;85.10;;;;;;5058593;28;19909;-52
2022/09/22 09:57:15;;;;;;;;;;;18.70;85.10;;;;;;5076354;28;19912;-53
2022/09/22 10:02:30;;;;;;;;;;;18.70;85.00;;;;;;5075961;28;20056;-54
2022/09/22 10:04:55;;;;;;;;;;;18.70;85.00;;;;;;5058479;28;20283;-49
2022/09/22 10:07:26;;;;;;;;;;;18.70;85.00;;;;;;5058303;28;19909;-54
2022/09/22 10:09:52;;;;;;;;;;;18.70;85.00;;;;;;5076323;28;19974;-53
2022/09/22 10:12:27;;;;;;;;;;;18.70;85.00;;;;;;5058305;28;19950;-53
2022/09/22 10:14:54;;;;;;;;;;;18.70;85.00;;;;;;5075843;28;20286;-53
2022/09/22 10:17:32;;;;;;;;;;;18.70;85.10;;;;;;5075853;28;20004;-51
2022/09/22 10:20:15;;;;;;;;;;;18.70;85.00;;;;;;5075917;28;19924;-51
2022/09/22 10:22:41;;;;;;;;;;;18.70;85.10;;;;;;5075590;28;19919;-52
2022/09/22 10:25:18;;;;;;;;;;;18.70;85.10;;;;;;5075751;28;19944;-50
2022/09/22 10:27:57;;;;;;;;;;;18.60;85.10;;;;;;5075443;28;19909;-51
2022/09/22 10:30:22;;;;;;;;;;;18.70;85.10;;;;;;5057177;28;19909;-52
2022/09/22 10:33:03;;;;;;;;;;;18.70;85.10;;;;;;5075500;28;19912;-51
2022/09/22 10:35:30;;;;;;;;;;;18.70;85.20;;;;;;5075490;28;19935;-53
2022/09/22 10:37:57;;;;;;;;;;;18.60;85.10;;;;;;5057728;28;19916;-54
2022/09/22 10:40:23;;;;;;;;;;;18.60;85.10;;;;;;5057265;28;20348;-51
2022/09/22 10:42:50;;;;;;;;;;;18.60;85.10;;;;;;5057517;28;20394;-49
2022/09/22 10:45:18;;;;;;;;;;;18.60;85.10;;;;;;5075242;28;20221;-50
2022/09/22 10:47:53;;;;;;;;;;;18.60;85.10;;;;;;5057079;28;19962;-49
2022/09/22 10:50:18;;;;;;;;;;;18.60;85.10;;;;;;5057570;28;19955;-52
2022/09/22 10:52:50;;;;;;;;;;;18.60;85.00;;;;;;5057473;28;19951;-52
2022/09/22 10:55:27;;;;;;;;;;;18.70;85.00;;;;;;5075200;28;19916;-51
2022/09/22 10:57:59;;;;;;;;;;;18.70;85.00;;;;;;5074701;28;19955;-52
2022/09/22 11:00:25;;;;;;;;;;;18.70;84.90;;;;;;5057218;28;19999;-51
2022/09/22 11:03:00;;;;;;;;;;;18.70;84.80;;;;;;5075466;28;19915;-51
2022/09/22 11:14:27;;;;;;;;;;;18.70;84.80;;;;;;5074749;28;19915;-52
2022/09/22 11:16:52;;;;;;;;;;;18.70;84.70;;;;;;5074434;28;20279;-53
2022/09/22 11:19:36;;;;;;;;;;;18.70;84.70;;;;;;5074747;28;19916;-51
2022/09/22 11:22:18;;;;;;;;;;;18.70;84.70;;;;;;5074105;28;20015;-53
2022/09/22 11:24:59;;;;;;;;;;;18.70;84.70;;;;;;5056820;28;19915;-52
2022/09/22 11:27:32;;;;;;;;;;;18.70;84.70;;;;;;5056587;28;20266;-53
2022/09/22 11:30:20;;;;;;;;;;;18.70;84.70;;;;;;5056533;28;20343;-51
2022/09/22 11:32:53;;;;;;;;;;;18.70;84.70;;;;;;5074168;28;19909;-50
2022/09/22 11:35:18;;;;;;;;;;;18.70;84.70;;;;;;5074257;28;20352;-52
2022/09/22 11:37:54;;;;;;;;;;;18.70;84.70;;;;;;5074024;28;20015;-54
2022/09/22 11:40:35;;;;;;;;;;;18.70;84.70;;;;;;5073898;28;19997;-50
2022/09/22 11:43:06;;;;;;;;;;;18.70;84.70;;;;;;5074032;28;19914;-50
2022/09/22 11:45:40;;;;;;;;;;;18.70;84.70;;;;;;5074189;28;20267;-53
2022/09/22 11:48:18;;;;;;;;;;;18.70;84.60;;;;;;5074004;28;19909;-50
2022/09/22 11:50:50;;;;;;;;;;;18.70;84.60;;;;;;5073807;28;19908;-51
2022/09/22 11:53:25;;;;;;;;;;;18.70;84.70;;;;;;5074247;28;19940;-49
2022/09/22 11:55:51;;;;;;;;;;;18.70;84.60;;;;;;5074092;28;19912;-50
2022/09/22 11:58:19;;;;;;;;;;;18.70;84.60;;;;;;5073867;28;19913;-50
2022/09/22 12:00:49;;;;;;;;;;;18.70;84.60;;;;;;5055936;28;19919;-52
2022/09/22 12:03:34;;;;;;;;;;;18.70;84.60;;;;;;5055916;28;20426;-51
2022/09/22 12:06:02;;;;;;;;;;;18.70;84.60;;;;;;5073834;28;20013;-51
2022/09/22 12:08:32;;;;;;;;;;;18.70;84.60;;;;;;5056060;28;20008;-51
2022/09/22 12:10:58;;;;;;;;;;;18.70;84.60;;;;;;5073734;28;19944;-50
2022/09/22 12:13:26;;;;;;;;;;;18.70;84.60;;;;;;5073580;28;20007;-50
2022/09/22 12:16:10;;;;;;;;;;;18.70;84.50;;;;;;5073844;28;19920;-53
2022/09/22 12:18:38;;;;;;;;;;;18.70;84.50;;;;;;5055754;28;19912;-51
2022/09/22 12:21:04;;;;;;;;;;;18.70;84.50;;;;;;5073859;28;19962;-51
2022/09/22 12:23:29;;;;;;;;;;;18.70;84.50;;;;;;5073718;28;19913;-50
2022/09/22 12:26:03;;;;;;;;;;;18.70;84.50;;;;;;5073679;28;19909;-53
2022/09/22 12:28:30;;;;;;;;;;;18.70;84.60;;;;;;5055889;28;19918;-48
2022/09/22 12:30:58;;;;;;;;;;;18.70;84.50;;;;;;5073953;28;19908;-50
2022/09/22 12:33:25;;;;;;;;;;;18.70;84.50;;;;;;5073404;28;19909;-55
2022/09/22 12:35:52;;;;;;;;;;;18.70;84.50;;;;;;5073190;28;20005;-54
2022/09/22 12:38:19;;;;;;;;;;;18.70;84.50;;;;;;5073623;28;19948;-53
2022/09/22 12:40:46;;;;;;;;;;;18.70;84.50;;;;;;5073620;28;20376;-51
2022/09/22 12:43:13;;;;;;;;;;;18.70;84.40;;;;;;5073276;28;19909;-50
2022/09/22 12:45:41;;;;;;;;;;;18.70;84.40;;;;;;5073295;28;19918;-52
2022/09/22 12:48:09;;;;;;;;;;;18.70;84.40;;;;;;5073463;28;19909;-55
2022/09/22 12:50:38;;;;;;;;;;;18.70;84.40;;;;;;5073256;28;20377;-52
2022/09/22 12:53:22;;;;;;;;;;;18.70;84.30;;;;;;5075078;28;20355;-50
2022/09/22 12:55:48;;;;;;;;;;;18.70;84.30;;;;;;5077264;28;19995;-52
2022/09/22 12:58:19;;;;;;;;;;;18.70;84.30;;;;;;5059272;28;20375;-52
2022/09/22 13:00:46;;;;;;;;;;;18.70;84.20;;;;;;5077525;28;19908;-51
2022/09/22 13:03:23;;;;;;;;;;;18.70;84.10;;;;;;5077852;28;20355;-52
2022/09/22 13:06:03;;;;;;;;;;;18.70;84.10;;;;;;5077510;28;20007;-49
2022/09/22 13:08:31;;;;;;;;;;;18.60;84.00;;;;;;5077041;28;20281;-52
2022/09/22 13:11:01;;;;;;;;;;;18.70;84.10;;;;;;5076980;28;19909;-52
2022/09/22 13:13:32;;;;;;;;;;;18.60;84.00;;;;;;5077330;28;19916;-50
2022/09/22 13:15:59;;;;;;;;;;;18.60;84.00;;;;;;5076749;28;19912;-52
2022/09/22 13:18:38;;;;;;;;;;;18.60;84.10;;;;;;5076979;28;19918;-53
2022/09/22 13:21:12;;;;;;;;;;;18.60;84.10;;;;;;5077044;28;20362;-51
2022/09/22 13:23:50;;;;;;;;;;;18.60;84.20;;;;;;5058870;28;19909;-51
2022/09/22 13:26:19;;;;;;;;;;;18.50;84.20;;;;;;5058486;28;19909;-51
2022/09/22 13:28:57;;;;;;;;;;;18.60;84.30;;;;;;5076484;28;20004;-50
2022/09/22 13:31:22;;;;;;;;;;;18.50;84.30;;;;;;5076449;28;20398;-52
2022/09/22 13:33:48;;;;;;;;;;;18.50;84.30;;;;;;5058622;28;19912;-50
2022/09/22 13:36:17;;;;;;;;;;;18.50;84.30;;;;;;5076310;28;20276;-52
2022/09/22 13:38:54;;;;;;;;;;;18.50;84.40;;;;;;5058773;28;19920;-51
2022/09/22 13:41:24;;;;;;;;;;;18.50;84.50;;;;;;5076517;28;20422;-53
2022/09/22 13:43:53;;;;;;;;;;;18.40;84.40;;;;;;5058339;28;19916;-52
2022/09/22 13:46:20;;;;;;;;;;;18.50;84.50;;;;;;5076325;28;19990;-52
2022/09/22 13:48:46;;;;;;;;;;;18.50;84.50;;;;;;5058594;28;19931;-51
2022/09/22 13:51:13;;;;;;;;;;;18.40;84.50;;;;;;5076429;28;19912;-53
2022/09/22 13:53:40;;;;;;;;;;;18.40;84.50;;;;;;5076256;28;19987;-50
2022/09/22 13:56:12;;;;;;;;;;;18.40;84.60;;;;;;5076276;28;19978;-51
2022/09/22 13:58:39;;;;;;;;;;;18.40;84.60;;;;;;5076161;28;19912;-49
2022/09/22 14:01:12;;;;;;;;;;;18.40;84.60;;;;;;5058357;28;19958;-50
2022/09/22 14:03:37;;;;;;;;;;;18.40;84.60;;;;;;5075700;28;20345;-54
2022/09/22 14:06:04;;;;;;;;;;;18.40;84.50;;;;;;5075236;28;19909;-51
2022/09/22 14:08:30;;;;;;;;;;;18.40;84.60;;;;;;5075641;28;19915;-52
2022/09/22 14:10:57;;;;;;;;;;;18.40;85.10;;;;;;5076134;28;19954;-53
2022/09/22 14:13:39;;;;;;;;;;;18.30;85.10;;;;;;5076110;28;19908;-54
2022/09/22 14:16:07;;;;;;;;;;;18.30;84.50;;;;;;5057810;28;19912;-51
2022/09/22 14:18:37;;;;;;;;;;;18.30;84.60;;;;;;5075196;28;20320;-51
2022/09/22 14:21:06;;;;;;;;;;;18.30;84.60;;;;;;5075868;28;19909;-52
2022/09/22 14:23:32;;;;;;;;;;;18.30;84.60;;;;;;5075612;28;19909;-53
2022/09/22 14:26:00;;;;;;;;;;;18.30;84.60;;;;;;5075596;28;19915;-50
2022/09/22 14:28:33;;;;;;;;;;;18.30;84.60;;;;;;5075619;28;19944;-52
2022/09/22 14:30:58;;;;;;;;;;;18.20;84.60;;;;;;5075533;28;19913;-50
2022/09/22 14:33:26;;;;;;;;;;;18.30;84.70;;;;;;5075380;28;19959;-49
2022/09/22 14:36:01;;;;;;;;;;;18.20;84.70;;;;;;5075304;28;20279;-53
2022/09/22 14:38:27;;;;;;;;;;;18.20;84.70;;;;;;5057237;28;19912;-53
2022/09/22 14:40:54;;;;;;;;;;;18.20;84.70;;;;;;5056955;28;20007;-50
2022/09/22 14:43:24;;;;;;;;;;;18.20;84.60;;;;;;5056792;28;19909;-51
2022/09/22 14:45:57;;;;;;;;;;;18.20;84.60;;;;;;5074638;28;19909;-52